Time;durP1;ratioP1;P1;durP2;ratioP2;P2;SDS_P1;SDS_P2;PMS_P1;PMS_P2;Temp;Humidity;BMP_temperature;BMP_pressure;BME280_temperature;BME280_humidity;BME280_pressure;Samples;Min_cycle;Max_cycle;Signal;HPM_P1;HPM_P2
2023/12/21 00:01:33;;;;;;;18.52;12.88;;;;;;;7.68;100.00;69346.91;5053076;28;20029;-63
2023/12/21 00:03:58;;;;;;;24.35;13.80;;;;;;;7.74;100.00;69009.66;5052194;28;20372;-63
2023/12/21 00:06:24;;;;;;;20.75;13.63;;;;;;;7.77;100.00;69013.00;5053191;28;20033;-63
2023/12/21 00:08:49;;;;;;;24.15;12.10;;;;;;;7.77;100.00;68669.66;5051555;28;20033;-63
2023/12/21 00:11:15;;;;;;;19.52;13.73;;;;;;;7.78;100.00;68670.22;5052903;28;20025;-63
2023/12/21 00:13:40;;;;;;;20.92;11.57;;;;;;;7.76;100.00;68668.53;5052948;28;20028;-64
2023/12/21 00:16:06;;;;;;;15.30;13.55;;;;;;;7.78;100.00;68670.22;5051400;28;20048;-63
2023/12/21 00:18:31;;;;;;;21.75;13.02;;;;;;;7.80;100.00;68671.84;5052645;28;20021;-64
2023/12/21 00:20:56;;;;;;;17.10;13.30;;;;;;;7.79;100.00;68671.28;5051719;28;20037;-63
2023/12/21 00:23:22;;;;;;;21.58;15.10;;;;;;;7.78;100.00;68326.31;5052624;28;20028;-63
2023/12/21 00:25:47;;;;;;;17.00;11.57;;;;;;;7.78;100.00;68670.22;5051690;28;20037;-63
2023/12/21 00:28:13;;;;;;;15.13;12.15;;;;;;;7.78;100.00;68326.31;5052819;28;20016;-63
2023/12/21 00:30:38;;;;;;;19.45;13.00;;;;;;;7.78;100.00;68326.31;5050858;28;20045;-63
2023/12/21 00:33:04;;;;;;;15.25;11.90;;;;;;;7.80;100.00;68328.50;5052762;28;20029;-63
2023/12/21 00:35:29;;;;;;;14.50;13.07;;;;;;;7.80;100.00;68328.50;5051208;28;20563;-63
2023/12/21 00:37:54;;;;;;;17.23;15.23;;;;;;;7.83;100.00;67987.94;5052262;28;20053;-63
2023/12/21 00:40:20;;;;;;;17.25;14.40;;;;;;;7.79;100.00;67983.56;5050813;28;20045;-63
2023/12/21 00:42:46;;;;;;;23.70;14.60;;;;;;;7.85;100.00;67990.13;5052743;28;20020;-63
2023/12/21 00:45:12;;;;;;;18.63;14.07;;;;;;;7.81;100.00;67985.75;5051025;28;20036;-63
2023/12/21 00:47:37;;;;;;;21.23;12.82;;;;;;;7.81;100.00;67985.75;5052394;28;20828;-63
2023/12/21 00:50:03;;;;;;;15.70;14.02;;;;;;;7.80;100.00;67984.66;5051008;28;20037;-63
2023/12/21 00:52:28;;;;;;;18.58;14.38;;;;;;;7.79;100.00;67639.72;5052181;28;20029;-63
2023/12/21 00:54:53;;;;;;;14.00;12.30;;;;;;;7.85;100.00;67646.25;5050963;28;20119;-63
2023/12/21 00:57:19;;;;;;;16.55;10.95;;;;;;;7.86;100.00;67646.78;5050715;28;20102;-63
2023/12/21 00:59:44;;;;;;;18.58;12.25;;;;;;;7.81;100.00;67985.75;5050453;28;20047;-63
2023/12/21 01:02:10;;;;;;;14.85;11.15;;;;;;;7.86;100.00;67647.31;5052467;28;20024;-63
2023/12/21 01:04:35;;;;;;;11.70;10.27;;;;;;;7.86;100.00;67647.31;5050711;28;20431;-63
2023/12/21 01:07:01;;;;;;;16.55;11.50;;;;;;;7.86;100.00;67647.31;5051622;28;20036;-66
2023/12/21 01:09:27;;;;;;;12.35;10.98;;;;;;;7.87;100.00;67648.41;5050439;28;20041;-66
2023/12/21 01:11:52;;;;;;;15.98;13.27;;;;;;;7.88;100.00;67305.66;5052038;28;20086;-66
2023/12/21 01:14:17;;;;;;;15.52;12.07;;;;;;;7.87;100.00;67648.41;5050119;28;20511;-66
2023/12/21 01:16:43;;;;;;;15.73;11.95;;;;;;;7.87;100.00;67648.41;5052000;28;20075;-66
2023/12/21 01:19:08;;;;;;;16.42;13.88;;;;;;;7.89;100.00;67650.59;5050826;28;20044;-65
2023/12/21 01:21:34;;;;;;;15.05;12.60;;;;;;;7.88;100.00;67648.97;5051306;28;20464;-66
2023/12/21 01:23:59;;;;;;;15.43;13.35;;;;;;;7.91;100.00;67652.78;5050460;28;20031;-65
2023/12/21 01:26:25;;;;;;;19.42;12.52;;;;;;;7.88;100.00;67649.50;5051710;28;20040;-66
2023/12/21 01:28:51;;;;;;;15.75;12.30;;;;;;;7.86;100.00;67991.19;5049891;28;20025;-66
2023/12/21 01:31:16;;;;;;;18.70;15.50;;;;;;;7.87;100.00;67992.28;5051250;28;20491;-65
2023/12/21 01:33:41;;;;;;;17.40;13.90;;;;;;;7.78;100.00;67982.47;5051647;28;20029;-66
2023/12/21 01:36:10;;;;;;;18.17;14.98;;;;;;;7.88;100.00;67648.97;5049319;28;20048;-65
2023/12/21 01:38:36;;;;;;;22.33;14.75;;;;;;;7.89;100.00;67650.06;5051532;28;20047;-66
2023/12/21 01:41:01;;;;;;;24.08;15.38;;;;;;;7.87;100.00;67648.41;5050152;28;20033;-66
2023/12/21 01:43:26;;;;;;;19.40;15.13;;;;;;;7.91;100.00;67308.91;5050882;28;20039;-66
2023/12/21 01:45:55;;;;;;;25.20;15.48;;;;;;;7.94;100.00;67312.13;5049890;28;20068;-66
2023/12/21 01:48:21;;;;;;;23.88;15.13;;;;;;;7.92;100.00;67310.00;5051470;28;20032;-66
2023/12/21 01:50:48;;;;;;;17.80;14.90;;;;;;;7.93;100.00;67311.06;5049517;28;20037;-66
2023/12/21 01:53:14;;;;;;;29.75;16.98;;;;;;;7.92;100.00;67310.00;5051352;28;20180;-66
2023/12/21 01:55:41;;;;;;;31.88;18.80;;;;;;;7.97;100.00;66970.44;5049639;28;20050;-64
2023/12/21 01:58:08;;;;;;;25.30;15.73;;;;;;;7.96;100.00;67313.22;5051089;28;20025;-64
2023/12/21 02:00:34;;;;;;;25.70;17.10;;;;;;;7.96;100.00;67313.22;5049856;28;20044;-65
2023/12/21 02:03:00;;;;;;;33.80;20.48;;;;;;;7.98;100.00;66971.50;5051041;28;20446;-65
2023/12/21 02:05:26;;;;;;;26.17;17.65;;;;;;;7.96;100.00;67313.22;5049120;28;20041;-64
2023/12/21 02:07:51;;;;;;;21.63;17.38;;;;;;;7.92;100.00;67310.00;5051168;28;20034;-64
2023/12/21 02:10:17;;;;;;;32.85;19.88;;;;;;;7.94;100.00;67656.00;5049566;28;20124;-66
2023/12/21 02:12:42;;;;;;;31.23;20.90;;;;;;;7.94;100.00;67656.00;5050825;28;20029;-66
2023/12/21 02:15:08;;;;;;;29.05;19.02;;;;;;;7.93;100.00;67654.94;5049737;28;20033;-65
2023/12/21 02:17:35;;;;;;;39.22;20.08;;;;;;;7.93;100.00;67998.84;5050778;28;20102;-65
2023/12/21 02:20:01;;;;;;;24.98;17.77;;;;;;;7.93;100.00;67998.84;5048893;28;20039;-65
2023/12/21 02:22:28;;;;;;;24.50;18.30;;;;;;;7.92;100.00;67997.19;5050737;28;20476;-65
2023/12/21 02:24:54;;;;;;;35.85;21.48;;;;;;;7.92;100.00;68341.69;5049538;28;20454;-65
2023/12/21 02:27:20;;;;;;;22.15;16.65;;;;;;;7.91;100.00;68340.59;5050854;28;20021;-65
2023/12/21 02:29:45;;;;;;;51.13;18.45;;;;;;;7.94;100.00;68343.31;5049022;28;20518;-65
2023/12/21 02:32:11;;;;;;;26.80;16.13;;;;;;;7.94;100.00;68343.88;5050972;28;20024;-65
2023/12/21 02:34:36;;;;;;;32.00;17.50;;;;;;;7.94;100.00;68343.31;5048577;28;20044;-65
2023/12/21 02:37:01;;;;;;;25.10;15.77;;;;;;;7.96;100.00;68344.97;5049982;28;20071;-64
2023/12/21 02:39:27;;;;;;;18.90;15.82;;;;;;;7.90;100.00;68683.44;5049201;28;20569;-64
2023/12/21 02:41:53;;;;;;;20.45;17.35;;;;;;;7.87;100.00;68680.13;5050830;28;20029;-64
2023/12/21 02:44:18;;;;;;;21.02;14.35;;;;;;;7.93;100.00;68686.72;5049218;28;20056;-64
2023/12/21 02:46:44;;;;;;;21.15;13.75;;;;;;;7.91;100.00;68684.53;5050649;28;20123;-65
2023/12/21 02:49:09;;;;;;;21.75;15.43;;;;;;;7.90;100.00;68682.88;5049191;28;20037;-64
2023/12/21 02:51:34;;;;;;;19.15;15.20;;;;;;;7.93;100.00;68342.78;5050132;28;20021;-64
2023/12/21 02:54:00;;;;;;;27.02;16.30;;;;;;;7.92;100.00;68341.69;5049203;28;20024;-64
2023/12/21 02:56:25;;;;;;;17.58;14.90;;;;;;;7.89;100.00;68338.38;5050352;28;20461;-64
2023/12/21 02:58:50;;;;;;;16.88;15.18;;;;;;;7.92;100.00;67997.75;5049970;28;20017;-65
2023/12/21 03:01:16;;;;;;;18.83;15.00;;;;;;;7.96;100.00;68001.03;5054026;28;20009;-65
2023/12/21 03:03:41;;;;;;;15.35;13.27;;;;;;;7.96;100.00;68001.03;5054714;28;20051;-65
2023/12/21 03:06:07;;;;;;;19.90;14.98;;;;;;;7.94;100.00;67999.94;5052528;28;20064;-65
2023/12/21 03:08:32;;;;;;;19.30;14.88;;;;;;;7.95;100.00;68000.50;5054289;28;20079;-65
2023/12/21 03:10:57;;;;;;;28.83;15.20;;;;;;;7.97;100.00;68002.66;5052826;28;20047;-65
2023/12/21 03:13:23;;;;;;;21.20;13.32;;;;;;;7.96;100.00;68001.03;5053825;28;20036;-64
2023/12/21 03:15:49;;;;;;;21.58;14.43;;;;;;;7.96;100.00;68001.03;5053003;28;20037;-65
2023/12/21 03:18:15;;;;;;;33.15;16.63;;;;;;;7.93;100.00;68342.22;5054228;28;20369;-65
2023/12/21 03:20:40;;;;;;;16.55;12.57;;;;;;;7.96;100.00;68001.03;5052275;28;20044;-65
2023/12/21 03:23:06;;;;;;;22.13;12.38;;;;;;;8.00;100.00;68005.41;5054088;28;20040;-65
2023/12/21 03:25:31;;;;;;;24.60;15.23;;;;;;;7.96;100.00;68001.03;5052644;28;20041;-65
2023/12/21 03:27:56;;;;;;;20.27;14.32;;;;;;;7.96;100.00;68344.97;5053822;28;20029;-64
2023/12/21 03:30:22;;;;;;;22.05;11.88;;;;;;;7.97;100.00;68346.59;5051782;28;20037;-65
2023/12/21 03:32:48;;;;;;;24.17;13.77;;;;;;;7.94;100.00;68343.31;5053998;28;20068;-65
2023/12/21 03:35:13;;;;;;;20.52;12.05;;;;;;;7.91;100.00;68340.59;5052178;28;20102;-65
2023/12/21 03:37:38;;;;;;;24.27;13.95;;;;;;;7.92;100.00;68341.69;5053517;28;20049;-66
2023/12/21 03:40:05;;;;;;;18.02;12.65;;;;;;;7.93;100.00;68686.72;5052554;28;20037;-65
2023/12/21 03:42:31;;;;;;;16.08;12.95;;;;;;;7.88;100.00;68337.28;5053311;28;20438;-65
2023/12/21 03:44:56;;;;;;;20.80;12.20;;;;;;;7.94;100.00;68687.28;5052878;28;20033;-65
2023/12/21 03:47:22;;;;;;;18.45;12.70;;;;;;;7.92;100.00;68341.69;5053529;28;20026;-66
2023/12/21 03:49:47;;;;;;;21.02;12.73;;;;;;;7.94;100.00;68343.88;5051811;28;20053;-64
2023/12/21 03:52:12;;;;;;;21.98;13.55;;;;;;;7.96;100.00;68344.97;5053703;28;20021;-63
2023/12/21 03:54:38;;;;;;;25.42;12.65;;;;;;;7.93;100.00;68342.78;5051542;28;20384;-64
2023/12/21 03:57:03;;;;;;;24.95;13.75;;;;;;;7.97;100.00;68002.13;5053031;28;20024;-64
2023/12/21 03:59:29;;;;;;;21.98;12.07;;;;;;;7.97;100.00;68002.13;5051391;28;20024;-64
2023/12/21 04:01:56;;;;;;;15.07;10.85;;;;;;;7.97;100.00;68346.59;5053289;28;20036;-64
2023/12/21 04:04:22;;;;;;;27.55;12.95;;;;;;;7.93;100.00;68342.78;5052698;28;20064;-64
2023/12/21 04:06:47;;;;;;;14.38;10.93;;;;;;;7.96;100.00;68345.53;5051990;28;20041;-64
2023/12/21 04:09:12;;;;;;;17.65;12.88;;;;;;;7.93;100.00;67998.84;5052766;28;20033;-64
2023/12/21 04:11:38;;;;;;;19.38;11.82;;;;;;;8.00;100.00;68005.41;5051463;28;20118;-64
2023/12/21 04:14:03;;;;;;;18.40;11.77;;;;;;;7.97;100.00;68346.06;5053050;28;20025;-64
2023/12/21 04:16:28;;;;;;;14.63;10.63;;;;;;;7.96;100.00;68345.53;5051615;28;20041;-65
2023/12/21 04:18:54;;;;;;;24.25;11.98;;;;;;;7.96;100.00;68344.97;5052832;28;20439;-65
2023/12/21 04:21:19;;;;;;;22.85;12.82;;;;;;;7.87;100.00;68336.19;5051513;28;20041;-64
2023/12/21 04:23:46;;;;;;;20.05;12.38;;;;;;;7.88;100.00;68336.75;5053321;28;20025;-64
2023/12/21 04:26:21;;;;;;;17.70;13.05;;;;;;;7.94;100.00;68343.88;5050890;28;20045;-64
2023/12/21 04:28:48;;;;;;;21.83;12.23;;;;;;;7.99;100.00;68348.28;5053069;28;20040;-66
2023/12/21 04:31:19;;;;;;;22.48;12.90;;;;;;;7.90;100.00;68339.50;5051477;28;20519;-67
2023/12/21 04:33:46;;;;;;;21.48;12.50;;;;;;;7.89;100.00;68681.78;5052691;28;20033;-66
2023/12/21 04:36:12;;;;;;;17.08;13.55;;;;;;;7.94;100.00;68687.84;5051070;28;20412;-66
2023/12/21 04:38:38;;;;;;;19.48;13.35;;;;;;;7.98;100.00;68347.72;5052973;28;20024;-65
2023/12/21 04:41:03;;;;;;;21.35;14.20;;;;;;;7.98;100.00;68347.16;5051016;28;20049;-65
2023/12/21 04:43:28;;;;;;;19.17;11.40;;;;;;;7.99;100.00;68348.28;5052112;28;20110;-66
2023/12/21 04:45:54;;;;;;;33.08;15.43;;;;;;;7.97;100.00;68690.06;5051121;28;20041;-65
2023/12/21 04:48:20;;;;;;;31.95;16.60;;;;;;;7.97;100.00;68690.06;5052000;28;20024;-63
2023/12/21 04:50:45;;;;;;;15.07;11.52;;;;;;;8.00;100.00;68693.38;5051109;28;20503;-63
2023/12/21 04:53:10;;;;;;;24.48;13.77;;;;;;;7.98;100.00;69035.19;5052148;28;20049;-62
2023/12/21 04:55:36;;;;;;;18.52;13.05;;;;;;;7.98;100.00;69035.19;5050351;28;20047;-63
2023/12/21 04:58:01;;;;;;;16.02;11.90;;;;;;;7.98;100.00;69379.22;5052756;28;20074;-63
2023/12/21 05:00:29;;;;;;;23.15;12.10;;;;;;;7.97;100.00;69378.66;5050695;28;20531;-64
2023/12/21 05:02:54;;;;;;;19.85;12.07;;;;;;;7.91;100.00;69716.59;5052229;28;20051;-63
2023/12/21 05:05:21;;;;;;;18.15;11.38;;;;;;;7.96;100.00;69377.56;5050498;28;20634;-64
2023/12/21 05:07:47;;;;;;;26.35;14.57;;;;;;;7.96;100.00;69721.06;5052537;28;20021;-63
2023/12/21 05:10:12;;;;;;;13.57;10.52;;;;;;;7.96;100.00;69721.06;5050494;28;20163;-63
2023/12/21 05:12:38;;;;;;;21.70;11.13;;;;;;;7.94;100.00;69719.94;5050737;28;20396;-62
2023/12/21 05:15:03;;;;;;;14.63;11.85;;;;;;;7.96;100.00;69721.06;5050739;28;20033;-62
2023/12/21 05:17:28;;;;;;;19.52;11.77;;;;;;;7.97;100.00;69722.19;5051635;28;20025;-62
2023/12/21 05:19:54;;;;;;;21.35;12.75;;;;;;;7.97;100.00;69722.19;5050284;28;20037;-62
2023/12/21 05:22:19;;;;;;;19.73;12.85;;;;;;;7.98;100.00;69723.31;5051097;28;20071;-62
2023/12/21 05:24:45;;;;;;;18.88;12.15;;;;;;;7.99;100.00;69724.97;5050605;28;20032;-62
2023/12/21 05:27:10;;;;;;;17.90;11.98;;;;;;;8.00;100.00;69725.53;5051591;28;20388;-62
2023/12/21 05:29:35;;;;;;;15.60;11.50;;;;;;;7.98;100.00;69723.31;5049706;28;20049;-62
2023/12/21 05:32:01;;;;;;;18.38;10.63;;;;;;;8.00;100.00;69725.53;5051427;28;20021;-60
2023/12/21 05:34:26;;;;;;;19.33;12.48;;;;;;;8.02;100.00;69727.78;5050021;28;20040;-60
2023/12/21 05:36:52;;;;;;;13.40;10.38;;;;;;;8.01;100.00;69727.22;5041128;28;20055;-60
2023/12/21 05:39:17;;;;;;;27.40;12.85;;;;;;;8.04;100.00;69730.03;5048542;28;20424;-59
2023/12/21 05:41:43;;;;;;;21.05;11.82;;;;;;;8.02;100.00;70072.47;5050786;28;20028;-60
2023/12/21 05:44:08;;;;;;;20.13;12.15;;;;;;;8.00;100.00;70069.66;5050065;28;20037;-60
2023/12/21 05:46:34;;;;;;;43.05;13.10;;;;;;;8.04;100.00;70074.16;5051286;28;20025;-60
2023/12/21 05:48:59;;;;;;;31.60;16.63;;;;;;;8.05;100.00;70075.28;5049578;28;20025;-60
2023/12/21 05:51:24;;;;;;;29.55;16.73;;;;;;;8.05;100.00;70075.84;5051221;28;20029;-60
2023/12/21 05:53:50;;;;;;;27.75;13.40;;;;;;;8.05;100.00;70075.84;5050090;28;20021;-60
2023/12/21 05:56:15;;;;;;;20.58;11.80;;;;;;;8.06;100.00;70076.97;5050960;28;20025;-59
2023/12/21 05:58:40;;;;;;;17.25;12.85;;;;;;;8.05;100.00;70419.47;5051330;28;20021;-60
2023/12/21 06:01:07;;;;;;;29.27;14.43;;;;;;;8.06;100.00;70421.16;5049609;28;20047;-60
2023/12/21 06:03:32;;;;;;;30.42;12.45;;;;;;;8.07;100.00;70077.56;5050616;28;20104;-60
2023/12/21 06:05:57;;;;;;;22.35;11.55;;;;;;;8.06;100.00;70421.16;5041142;28;20041;-60
2023/12/21 06:08:23;;;;;;;28.42;11.95;;;;;;;8.07;100.00;70421.75;5041146;28;20021;-60
2023/12/21 06:10:48;;;;;;;27.90;11.65;;;;;;;8.11;100.00;70082.03;5036461;28;20056;-60
2023/12/21 06:13:13;;;;;;;20.95;12.60;;;;;;;8.12;100.00;69739.00;5037745;28;20032;-60
2023/12/21 06:15:39;;;;;;;26.92;12.27;;;;;;;8.13;100.00;69740.13;5041354;28;20040;-60
2023/12/21 06:18:04;;;;;;;25.63;12.60;;;;;;;8.13;100.00;69740.13;5040078;28;20032;-60
2023/12/21 06:20:30;;;;;;;21.05;9.90;;;;;;;8.12;100.00;70083.19;5040281;28;20397;-59
2023/12/21 06:22:56;;;;;;;17.35;9.90;;;;;;;8.12;100.00;70083.19;5041846;28;20032;-60
2023/12/21 06:25:21;;;;;;;15.70;10.05;;;;;;;8.14;100.00;70085.44;5037613;28;20037;-60
2023/12/21 06:27:47;;;;;;;17.63;9.40;;;;;;;8.14;100.00;70085.44;5050440;28;20021;-60
2023/12/21 06:30:12;;;;;;;12.65;8.85;;;;;;;8.15;100.00;70086.00;5048268;28;20037;-59
2023/12/21 06:32:38;;;;;;;17.02;9.40;;;;;;;8.12;100.00;70427.41;5049403;28;20403;-60
2023/12/21 06:35:03;;;;;;;27.17;8.98;;;;;;;8.15;100.00;70430.78;5048676;28;20048;-60
2023/12/21 06:37:29;;;;;;;19.65;9.60;;;;;;;8.17;100.00;70433.03;5049062;28;20044;-60
2023/12/21 06:39:54;;;;;;;43.50;9.77;;;;;;;8.11;100.00;70426.25;5048332;28;20052;-60
2023/12/21 06:42:20;;;;;;;15.38;8.60;;;;;;;8.14;100.00;70429.66;5049800;28;20476;-59
2023/12/21 06:44:45;;;;;;;14.82;8.30;;;;;;;7.97;100.00;70754.56;5049245;28;20194;-60
2023/12/21 06:47:10;;;;;;;19.83;11.20;;;;;;;8.10;100.00;70769.34;5048682;28;20032;-60
2023/12/21 06:49:36;;;;;;;13.60;8.82;;;;;;;8.13;100.00;70772.78;5047946;28;20044;-60
2023/12/21 06:52:01;;;;;;;9.55;8.07;;;;;;;8.17;100.00;70777.31;5050662;28;20492;-60
2023/12/21 06:54:27;;;;;;;13.57;8.65;;;;;;;8.16;100.00;70776.19;5048535;28;20036;-60
2023/12/21 06:56:52;;;;;;;14.88;8.00;;;;;;;8.18;100.00;70778.47;5050600;28;20095;-59
2023/12/21 06:59:18;;;;;;;15.02;8.85;;;;;;;8.20;100.00;71124.47;5048841;28;20037;-60
2023/12/21 07:01:43;;;;;;;12.43;8.60;;;;;;;8.18;100.00;71122.78;5050561;28;20111;-60
2023/12/21 07:04:09;;;;;;;17.42;8.90;;;;;;;8.18;100.00;71122.22;5048921;28;20033;-60
2023/12/21 07:06:34;;;;;;;13.50;9.60;;;;;;;8.20;100.00;71469.41;5050278;28;20040;-60
2023/12/21 07:09:00;;;;;;;8.90;8.05;;;;;;;8.23;100.00;72161.13;5048785;28;20025;-60
2023/12/21 07:11:26;;;;;;;14.40;9.27;;;;;;;8.17;100.00;71810.31;5050249;28;20024;-59
2023/12/21 07:13:51;;;;;;;14.45;9.80;;;;;;;8.22;100.00;72160.53;5048821;28;20243;-59
2023/12/21 07:16:17;;;;;;;11.82;9.68;;;;;;;8.17;100.00;72499.16;5048353;28;20684;-60
2023/12/21 07:18:42;;;;;;;14.13;7.88;;;;;;;8.24;100.00;72851.22;5050103;28;20052;-60
2023/12/21 07:21:07;;;;;;;9.80;8.52;;;;;;;8.24;100.00;72851.81;5049014;28;20037;-60
2023/12/21 07:23:33;;;;;;;15.18;10.30;;;;;;;8.28;100.00;73199.88;5049966;28;20427;-59
2023/12/21 07:25:58;;;;;;;25.55;11.60;;;;;;;8.28;100.00;73544.44;5048841;28;20037;-59
2023/12/21 07:28:25;;;;;;;16.50;9.32;;;;;;;8.20;100.00;73880.72;5044821;28;20024;-60
2023/12/21 07:30:51;;;;;;;12.95;8.20;;;;;;;8.31;100.00;74237.25;5010778;28;20468;-60
2023/12/21 07:33:16;;;;;;;13.75;7.85;;;;;;;8.31;100.00;74582.53;5010068;28;20033;-59
2023/12/21 07:35:42;;;;;;;12.95;8.65;;;;;;;8.32;100.00;75272.59;5023890;28;20064;-59
2023/12/21 07:38:07;;;;;;;13.85;8.60;;;;;;;8.31;100.00;75616.13;5030329;28;20192;-60
2023/12/21 07:40:32;;;;;;;16.83;9.85;;;;;;;8.32;100.00;75962.16;5028299;28;20041;-59
2023/12/21 07:42:58;;;;;;;20.17;9.95;;;;;;;8.34;100.00;76310.06;5030404;28;20420;-59
2023/12/21 07:45:23;;;;;;;15.30;9.60;;;;;;;8.33;100.00;77342.91;5030427;28;20514;-60
2023/12/21 07:47:49;;;;;;;11.65;7.18;;;;;;;8.32;100.00;77686.63;5033770;28;20029;-59
2023/12/21 07:50:14;;;;;;;12.85;9.25;;;;;;;8.31;100.00;78376.00;5031931;28;20060;-60
2023/12/21 07:52:40;;;;;;;10.77;8.95;;;;;;;8.30;100.00;78374.09;5033694;28;20049;-60
2023/12/21 07:55:06;;;;;;;11.70;7.65;;;;;;;8.32;100.00;78721.66;5031866;28;20048;-60
2023/12/21 07:57:32;;;;;;;13.60;9.23;;;;;;;8.29;100.00;79062.91;5033208;28;20657;-59
2023/12/21 07:59:57;;;;;;;10.95;8.13;;;;;;;8.31;100.00;79066.09;5032099;28;20037;-59
2023/12/21 08:02:23;;;;;;;11.88;8.50;;;;;;;8.34;100.00;78724.19;5033251;28;20037;-59
2023/12/21 08:04:48;;;;;;;12.07;7.50;;;;;;;8.35;100.00;78725.47;5032138;28;20037;-60
2023/12/21 08:07:13;;;;;;;14.07;8.77;;;;;;;8.34;100.00;79069.28;5033379;28;20025;-60
2023/12/21 08:09:39;;;;;;;14.93;9.38;;;;;;;8.35;100.00;78726.09;5031241;28;20044;-59
2023/12/21 08:12:04;;;;;;;11.85;8.57;;;;;;;8.36;100.00;78726.75;5033573;28;20087;-60
2023/12/21 08:14:31;;;;;;;12.82;7.28;;;;;;;8.37;100.00;78383.56;5031689;28;20041;-59
2023/12/21 08:16:59;;;;;;;14.68;8.20;;;;;;;8.37;100.00;78728.03;5033168;28;20025;-60
2023/12/21 08:19:25;;;;;;;13.15;6.45;;;;;;;8.36;100.00;78381.69;5031828;28;20038;-59
2023/12/21 08:21:50;;;;;;;7.72;6.57;;;;;;;8.37;100.00;78728.03;5033124;28;20029;-60
2023/12/21 08:24:16;;;;;;;12.50;9.15;;;;;;;8.37;100.00;78728.03;5031441;28;20048;-59
2023/12/21 08:26:41;;;;;;;13.32;6.43;;;;;;;8.37;100.00;78728.03;5032797;28;20091;-59
2023/12/21 08:29:07;;;;;;;13.98;4.53;;;;;;;8.38;100.00;78729.28;5031476;28;20119;-60
2023/12/21 08:31:32;;;;;;;8.57;5.15;;;;;;;8.38;100.00;78729.28;5032315;28;20040;-60
2023/12/21 08:33:57;;;;;;;10.25;5.25;;;;;;;8.38;100.00;78729.28;5031763;28;20029;-59
2023/12/21 08:36:23;;;;;;;11.00;5.10;;;;;;;8.39;100.00;78730.53;5032486;28;20053;-59
2023/12/21 08:38:48;;;;;;;12.75;5.57;;;;;;;8.41;100.00;78388.00;5031097;28;20025;-60
2023/12/21 08:41:14;;;;;;;7.72;3.95;;;;;;;8.39;100.00;78385.47;5032811;28;20607;-60
2023/12/21 08:43:39;;;;;;;6.78;4.30;;;;;;;8.33;100.00;78032.88;5032519;28;20021;-60
2023/12/21 08:46:04;;;;;;;5.20;4.40;;;;;;;8.42;100.00;78044.19;5030902;28;20049;-60
2023/12/21 08:48:30;;;;;;;10.00;4.70;;;;;;;8.43;100.00;78045.47;5032508;28;20017;-60
2023/12/21 08:50:55;;;;;;;12.57;5.57;;;;;;;8.45;100.00;78047.97;5031035;28;20107;-59
2023/12/21 08:53:21;;;;;;;6.97;6.00;;;;;;;8.47;100.00;77705.44;5032133;28;20030;-59
2023/12/21 08:55:46;;;;;;;23.55;9.88;;;;;;;8.44;100.00;77701.69;5030219;28;20038;-59
2023/12/21 08:58:12;;;;;;;20.27;9.82;;;;;;;8.45;100.00;77702.91;5031768;28;20029;-60
2023/12/21 09:00:37;;;;;;;6.18;3.67;;;;;;;8.42;100.00;77354.16;5030452;28;20037;-60
2023/12/21 09:03:03;;;;;;;3.78;3.25;;;;;;;8.44;100.00;77011.03;5032561;28;20429;-59
2023/12/21 09:05:28;;;;;;;5.88;4.05;;;;;;;8.46;100.00;76669.16;5030562;28;20038;-59
2023/12/21 09:07:54;;;;;;;8.60;3.70;;;;;;;8.45;100.00;76323.00;5031926;28;20028;-60
2023/12/21 09:10:20;;;;;;;8.57;3.22;;;;;;;8.49;100.00;75983.03;5030296;28;20515;-60
2023/12/21 09:12:45;;;;;;;8.65;3.55;;;;;;;8.47;100.00;75635.69;5032586;28;20025;-60
2023/12/21 09:15:11;;;;;;;3.90;2.90;;;;;;;8.49;100.00;75293.25;5030592;28;20041;-59
2023/12/21 09:17:37;;;;;;;4.68;2.97;;;;;;;8.53;100.00;74953.22;5031994;28;20025;-60
2023/12/21 09:20:04;;;;;;;3.97;2.70;;;;;;;8.54;100.00;74609.59;5030567;28;20034;-60
2023/12/21 09:22:29;;;;;;;2.80;2.60;;;;;;;8.56;100.00;74266.59;5031461;28;20044;-59
2023/12/21 09:24:55;;;;;;;4.75;2.20;;;;;;;8.60;100.00;74270.78;5030671;28;20041;-59
2023/12/21 09:27:20;;;;;;;6.85;2.97;;;;;;;8.61;100.00;74271.97;5031878;28;20480;-60
2023/12/21 09:29:45;;;;;;;4.10;3.55;;;;;;;8.64;100.00;73930.72;5029898;28;20056;-60
2023/12/21 09:32:11;;;;;;;3.38;2.38;;;;;;;8.68;100.00;73590.66;5032086;28;20017;-60
2023/12/21 09:34:36;;;;;;;2.33;2.22;;;;;;;8.70;100.00;73593.03;5030036;28;20057;-59
2023/12/21 09:37:04;;;;;;;3.10;2.22;;;;;;;8.72;100.00;73595.41;5031349;28;20053;-60
2023/12/21 09:39:30;;;;;;;3.33;2.55;;;;;;;8.70;100.00;73593.63;5030374;28;20107;-59
2023/12/21 09:42:00;;;;;;;5.93;3.05;;;;;;;8.74;100.00;73597.78;5031886;28;20492;-59
2023/12/21 09:44:26;;;;;;;1.95;1.85;;;;;;;8.74;100.00;73942.63;5029751;28;20059;-60
2023/12/21 09:46:53;;;;;;;1.98;1.88;;;;;;;8.80;100.00;73949.78;5031566;28;20032;-60
2023/12/21 09:49:20;;;;;;;3.42;2.42;;;;;;;8.84;100.00;74299.47;5029831;28;20037;-60
2023/12/21 09:51:46;;;;;;;2.15;2.05;;;;;;;8.84;100.00;74644.44;5031052;28;20075;-60
2023/12/21 09:54:14;;;;;;;6.07;4.18;;;;;;;8.87;100.00;74648.06;5030173;28;20037;-60
2023/12/21 09:56:40;;;;;;;3.30;2.20;;;;;;;8.87;100.00;75338.16;5031148;28;20084;-59
2023/12/21 09:59:05;;;;;;;4.20;1.88;;;;;;;8.85;100.00;75335.72;5029866;28;20057;-60
2023/12/21 10:01:31;;;;;;;2.60;2.42;;;;;;;8.89;100.00;75685.69;5031090;28;20127;-60
2023/12/21 10:03:57;;;;;;;4.13;2.20;;;;;;;8.92;100.00;75688.72;5029892;28;20504;-59
2023/12/21 10:06:23;;;;;;;3.28;2.50;;;;;;;8.95;100.00;76036.94;5031009;28;20021;-59
2023/12/21 10:08:49;;;;;;;5.72;3.22;;;;;;;8.96;100.00;76038.16;5029575;28;20083;-59
2023/12/21 10:11:14;;;;;;;4.03;2.15;;;;;;;9.00;100.00;76043.03;5030985;28;20025;-60
2023/12/21 10:13:46;;;;;;;2.72;2.42;;;;;;;9.03;100.00;76392.56;5031088;28;20025;-60
2023/12/21 10:16:12;;;;;;;6.65;3.63;;;;;;;9.03;100.00;76737.22;5029774;28;20053;-59
2023/12/21 10:18:37;;;;;;;6.10;2.63;;;;;;;9.01;100.00;77080.03;5031164;28;20521;-60
2023/12/21 10:21:03;;;;;;;4.15;2.10;;;;;;;9.05;100.00;77430.31;5029672;28;20041;-60
2023/12/21 10:23:28;;;;;;;4.47;2.60;;;;;;;9.11;100.00;77437.81;5030819;28;20033;-60
2023/12/21 10:25:54;;;;;;;3.13;1.95;;;;;;;9.14;100.00;77440.94;5029508;28;20057;-60
2023/12/21 10:28:23;;;;;;;2.92;2.20;;;;;;;9.17;100.00;77445.31;5030778;28;20029;-60
2023/12/21 10:30:56;;;;;;;4.15;2.70;;;;;;;9.19;100.00;77793.25;5029041;28;20182;-59
2023/12/21 10:33:22;;;;;;;4.00;2.33;;;;;;;9.20;100.00;77794.50;5030732;28;20034;-60
2023/12/21 10:35:47;;;;;;;4.43;2.17;;;;;;;9.21;100.00;78141.22;5029424;28;20088;-60
2023/12/21 10:38:14;;;;;;;3.90;2.75;;;;;;;9.16;100.00;78480.44;5030352;28;20049;-60
2023/12/21 10:40:43;;;;;;;4.50;2.08;;;;;;;9.22;100.00;78487.41;5029263;28;20099;-60
2023/12/21 10:43:10;;;;;;;4.93;2.25;;;;;;;9.34;100.00;78847.56;5030935;28;20388;-59
2023/12/21 10:45:35;;;;;;;8.95;3.25;;;;;;;9.38;100.00;79889.72;5028579;28;20046;-60
2023/12/21 10:48:11;;;;;;;6.90;2.53;;;;;;;9.40;100.00;80929.72;5031061;28;20036;-60
2023/12/21 10:50:38;;;;;;;10.63;3.72;;;;;;;9.40;100.00;82312.63;5028964;28;20045;-59
2023/12/21 10:53:04;;;;;;;4.93;2.80;;;;;;;9.42;100.00;83007.97;5030664;28;20393;-60
2023/12/21 10:55:30;;;;;;;5.90;2.80;;;;;;;9.49;100.00;84401.88;5029171;28;20456;-60
2023/12/21 10:57:56;;;;;;;8.57;2.30;;;;;;;9.50;100.00;85788.28;5030733;28;20029;-59
2023/12/21 11:00:22;;;;;;;13.95;3.15;;;;;;;9.55;100.00;87179.44;5028840;28;20037;-60
2023/12/21 11:02:48;;;;;;;7.35;2.45;;;;;;;9.61;100.00;89614.09;5030925;28;20017;-60
2023/12/21 11:05:22;;;;;;;9.13;1.92;;;;;;;9.60;100.00;91346.50;5029080;28;20482;-60
2023/12/21 11:07:53;;;;;;;9.35;2.17;;;;;;;9.66;100.00;93784.28;5030572;28;20024;-60
2023/12/21 11:10:21;;;;;;;8.65;3.70;;;;;;;9.73;100.00;97614.41;5028893;28;20175;-60
2023/12/21 11:12:47;;;;;;;7.17;2.20;;;;;;;9.80;100.00;102145.50;5030983;28;20030;-60
2023/12/21 11:15:20;;;;;;;7.13;2.22;;;;;;;9.75;100.00;107010.09;5028665;28;21014;-60